createdAt,value
2023-02-22T00:00:44.211Z,63.00
2023-02-22T00:03:15.588Z,63.10
2023-02-22T00:05:53.556Z,62.90
2023-02-22T00:08:21.745Z,63.00
2023-02-22T00:10:51.290Z,62.70
2023-02-22T00:13:18.724Z,63.00
2023-02-22T00:15:45.297Z,62.90
2023-02-22T00:18:12.832Z,62.90
2023-02-22T00:20:39.970Z,62.70
2023-02-22T00:23:07.726Z,63.20
2023-02-22T00:25:34.926Z,62.70
2023-02-22T00:28:02.153Z,62.70
2023-02-22T00:30:29.981Z,62.80
2023-02-22T00:32:56.736Z,62.90
2023-02-22T00:35:25.426Z,62.60
2023-02-22T00:37:52.906Z,62.70
2023-02-22T00:40:24.544Z,62.90
2023-02-22T00:42:51.575Z,62.90
2023-02-22T00:45:21.181Z,63.10
2023-02-22T00:47:47.974Z,62.80
2023-02-22T00:50:15.587Z,63.00
2023-02-22T00:52:42.962Z,63.00
2023-02-22T00:55:10.333Z,62.90
2023-02-22T00:57:37.082Z,62.90
2023-02-22T01:00:11.791Z,63.00
2023-02-22T01:02:39.529Z,62.50
2023-02-22T01:05:07.534Z,63.00
2023-02-22T01:07:34.686Z,62.90
2023-02-22T01:10:02.235Z,62.90
2023-02-22T01:12:29.634Z,62.80
2023-02-22T01:14:58.917Z,63.10
2023-02-22T01:17:25.827Z,62.50
2023-02-22T01:19:53.948Z,62.80
2023-02-22T01:22:21.347Z,62.70
2023-02-22T01:24:48.714Z,62.70
2023-02-22T01:27:15.276Z,62.60
2023-02-22T01:29:41.913Z,62.70
2023-02-22T01:32:08.608Z,62.70
2023-02-22T01:34:35.206Z,62.70
2023-02-22T01:37:01.841Z,62.90
2023-02-22T01:39:28.386Z,62.60
2023-02-22T01:41:54.999Z,62.70
2023-02-22T01:44:27.914Z,62.60
2023-02-22T01:46:58.549Z,62.90
2023-02-22T01:49:26.781Z,62.50
2023-02-22T01:51:55.953Z,62.80
2023-02-22T01:54:25.376Z,62.90
2023-02-22T01:56:56.807Z,62.60
2023-02-22T01:59:23.926Z,62.70
2023-02-22T02:01:50.541Z,63.00
2023-02-22T02:04:25.291Z,62.80
2023-02-22T02:07:06.009Z,62.50
2023-02-22T02:09:39.750Z,62.80
2023-02-22T02:12:08.387Z,62.70
2023-02-22T02:14:40.180Z,62.70
2023-02-22T02:17:09.758Z,62.50
2023-02-22T02:19:43.339Z,62.60
2023-02-22T02:22:19.603Z,62.80
2023-02-22T02:25:10.755Z,62.70
2023-02-22T02:27:53.378Z,62.70
2023-02-22T02:30:38.534Z,62.60
2023-02-22T02:33:08.972Z,62.90
2023-02-22T02:35:39.520Z,62.70
2023-02-22T02:38:06.066Z,62.80
2023-02-22T02:40:39.292Z,62.70
2023-02-22T02:43:12.266Z,62.80
2023-02-22T02:45:44.000Z,63.10
2023-02-22T02:48:12.507Z,62.90
2023-02-22T02:50:42.570Z,62.80
2023-02-22T02:53:09.851Z,62.50
2023-02-22T02:55:37.350Z,62.50
2023-02-22T02:58:05.092Z,62.40
2023-02-22T03:00:39.081Z,62.80
2023-02-22T03:03:05.702Z,62.80
2023-02-22T03:05:42.223Z,62.50
2023-02-22T03:08:11.772Z,62.60
2023-02-22T03:10:50.449Z,62.50
2023-02-22T03:13:26.007Z,62.50
2023-02-22T03:15:52.493Z,62.40
2023-02-22T03:18:23.994Z,62.50
2023-02-22T03:20:58.649Z,62.60
2023-02-22T03:23:29.191Z,62.50
2023-02-22T03:26:01.773Z,62.40
2023-02-22T03:28:29.348Z,62.60
2023-02-22T03:31:05.110Z,62.50
2023-02-22T03:33:33.905Z,62.40
2023-02-22T03:36:02.929Z,62.50
2023-02-22T03:38:31.994Z,62.50
2023-02-22T03:41:00.500Z,62.50
2023-02-22T03:43:29.816Z,62.20
2023-02-22T03:45:57.060Z,62.50
2023-02-22T03:48:31.277Z,62.40
2023-02-22T03:50:58.444Z,62.40
2023-02-22T03:53:25.274Z,62.20
2023-02-22T03:55:53.821Z,62.20
2023-02-22T03:58:21.619Z,62.50
2023-02-22T04:00:53.098Z,62.40
2023-02-22T04:03:20.405Z,62.30
2023-02-22T04:05:46.992Z,62.10
2023-02-22T04:08:13.620Z,62.20
2023-02-22T04:10:40.110Z,62.10
2023-02-22T04:13:07.097Z,61.90
2023-02-22T04:15:33.733Z,62.00
2023-02-22T04:18:00.251Z,62.10
2023-02-22T04:20:27.224Z,62.00
2023-02-22T04:22:54.459Z,62.10
2023-02-22T04:25:21.490Z,62.90
2023-02-22T04:27:48.286Z,61.90
2023-02-22T04:30:16.693Z,61.90
2023-02-22T04:32:43.251Z,61.90
2023-02-22T04:35:09.817Z,61.80
2023-02-22T04:37:37.035Z,61.90
2023-02-22T04:40:07.763Z,61.80
2023-02-22T04:42:34.914Z,61.80
2023-02-22T04:45:01.431Z,61.70
2023-02-22T04:47:28.070Z,61.70
2023-02-22T04:49:54.640Z,61.70
2023-02-22T04:52:21.280Z,61.80
2023-02-22T04:54:48.089Z,61.80
2023-02-22T04:57:14.593Z,61.60
2023-02-22T04:59:41.144Z,61.60
2023-02-22T05:02:07.734Z,61.40
2023-02-22T05:04:34.393Z,61.50
2023-02-22T05:07:00.934Z,61.60
2023-02-22T05:09:27.501Z,61.50
2023-02-22T05:11:54.103Z,61.30
2023-02-22T05:14:20.696Z,61.40
2023-02-22T05:16:48.761Z,61.30
2023-02-22T05:19:15.468Z,61.40
2023-02-22T05:21:41.994Z,61.30
2023-02-22T05:24:08.547Z,61.40
2023-02-22T05:26:35.068Z,61.40
2023-02-22T05:29:01.638Z,61.30
2023-02-22T05:31:28.273Z,61.30
2023-02-22T05:33:54.886Z,61.30
2023-02-22T05:36:21.452Z,61.20
2023-02-22T05:38:48.017Z,61.20
2023-02-22T05:41:14.906Z,61.20
2023-02-22T05:43:41.579Z,61.00
2023-02-22T05:46:08.168Z,61.00
2023-02-22T05:48:34.660Z,61.30
2023-02-22T05:51:01.251Z,61.10
2023-02-22T05:53:28.916Z,61.00
2023-02-22T05:55:55.491Z,61.00
2023-02-22T05:58:22.071Z,60.90
2023-02-22T06:00:48.603Z,49.00
2023-02-22T06:03:15.133Z,48.90
2023-02-22T06:05:41.678Z,50.80
2023-02-22T06:08:08.718Z,51.70
2023-02-22T06:10:35.449Z,52.50
2023-02-22T06:13:03.050Z,52.90
2023-02-22T06:15:29.700Z,53.40
2023-02-22T06:17:56.899Z,53.80
2023-02-22T06:20:24.539Z,54.90
2023-02-22T06:22:52.003Z,56.50
2023-02-22T06:25:21.020Z,68.10
2023-02-22T06:27:47.892Z,70.00
2023-02-22T06:30:15.424Z,70.10
2023-02-22T06:32:41.948Z,58.80
2023-02-22T06:35:08.916Z,54.00
2023-02-22T06:37:36.132Z,55.80
2023-02-22T06:40:05.765Z,63.90
2023-02-22T06:42:32.554Z,71.60
2023-02-22T06:44:59.120Z,73.40
2023-02-22T06:47:25.666Z,80.60
2023-02-22T06:49:56.444Z,83.30
2023-02-22T06:52:23.449Z,88.00
2023-02-22T06:54:50.141Z,91.30
2023-02-22T06:57:17.043Z,90.10
2023-02-22T07:02:11.767Z,92.00
2023-02-22T07:04:38.534Z,92.60
2023-02-22T07:11:59.057Z,89.50
2023-02-22T07:14:25.589Z,91.20
2023-02-22T07:19:20.709Z,88.30
2023-02-22T07:21:47.968Z,82.50
2023-02-22T07:24:14.545Z,80.40
2023-02-22T07:26:41.571Z,83.20
2023-02-22T07:29:08.310Z,77.10
2023-02-22T07:31:38.416Z,77.30
2023-02-22T07:34:04.996Z,76.10
2023-02-22T07:36:31.546Z,76.40
2023-02-22T07:38:58.094Z,77.10
2023-02-22T07:41:25.451Z,77.00
2023-02-22T07:43:51.947Z,77.40
2023-02-22T07:46:18.673Z,77.70
2023-02-22T07:48:45.235Z,77.70
2023-02-22T07:51:14.716Z,77.40
2023-02-22T07:53:41.437Z,77.50
2023-02-22T07:56:08.800Z,74.30
2023-02-22T07:58:35.561Z,71.40
2023-02-22T08:01:02.260Z,70.90
2023-02-22T08:03:30.700Z,68.70
2023-02-22T08:05:58.616Z,68.90
2023-02-22T08:08:25.222Z,68.80
2023-02-22T08:10:52.712Z,68.50
2023-02-22T08:13:20.562Z,69.80
2023-02-22T08:15:47.208Z,72.10
2023-02-22T08:18:16.462Z,69.80
2023-02-22T08:20:45.345Z,68.90
2023-02-22T08:23:14.501Z,69.30
2023-02-22T08:25:41.370Z,70.40
2023-02-22T08:28:10.606Z,71.30
2023-02-22T08:30:40.461Z,68.40
2023-02-22T08:33:07.469Z,68.30
2023-02-22T08:35:34.457Z,68.80
2023-02-22T08:38:06.684Z,68.90
2023-02-22T08:40:35.611Z,71.50
2023-02-22T08:43:03.103Z,67.80
2023-02-22T08:45:30.453Z,67.30
2023-02-22T08:47:58.442Z,68.40
2023-02-22T08:50:33.392Z,66.90
2023-02-22T08:53:02.640Z,69.30
2023-02-22T08:55:32.417Z,67.20
2023-02-22T08:58:01.284Z,67.10
2023-02-22T09:00:29.559Z,67.30
2023-02-22T09:02:56.268Z,65.60
2023-02-22T09:05:23.171Z,65.90
2023-02-22T09:07:49.824Z,65.90
2023-02-22T09:10:24.422Z,65.10
2023-02-22T09:12:58.299Z,66.60
2023-02-22T09:15:25.624Z,69.60
2023-02-22T09:17:53.025Z,69.30
2023-02-22T09:20:21.202Z,69.30
2023-02-22T09:22:49.267Z,69.20
2023-02-22T09:25:17.841Z,69.40
2023-02-22T09:27:48.106Z,69.30
2023-02-22T09:30:23.809Z,69.80
2023-02-22T09:32:52.938Z,69.60
2023-02-22T09:35:20.418Z,69.90
2023-02-22T09:37:47.055Z,70.60
2023-02-22T09:40:24.849Z,70.50
2023-02-22T09:43:31.963Z,70.90
2023-02-22T09:46:22.527Z,71.80
2023-02-22T09:49:17.252Z,73.30
2023-02-22T09:52:02.555Z,73.20
2023-02-22T09:54:36.518Z,74.10
2023-02-22T09:57:11.932Z,71.10
2023-02-22T09:59:46.003Z,70.60
2023-02-22T10:02:24.522Z,70.60
2023-02-22T10:05:20.850Z,69.90
2023-02-22T10:07:54.918Z,68.70
2023-02-22T10:10:33.530Z,68.90
2023-02-22T10:13:29.086Z,68.70
2023-02-22T10:16:14.665Z,68.60
2023-02-22T10:19:11.706Z,67.80
2023-02-22T10:21:53.706Z,67.30
2023-02-22T10:24:53.050Z,67.30
2023-02-22T10:27:28.325Z,67.50
2023-02-22T10:30:10.084Z,67.80
2023-02-22T10:32:50.112Z,67.40
2023-02-22T10:35:25.598Z,67.00
2023-02-22T10:37:57.271Z,67.00
2023-02-22T10:40:32.024Z,66.70
2023-02-22T10:43:11.133Z,66.90
2023-02-22T10:45:37.957Z,66.90
2023-02-22T10:48:08.618Z,66.40
2023-02-22T10:50:40.725Z,66.20
2023-02-22T10:53:08.957Z,66.40
2023-02-22T10:55:37.589Z,66.30
2023-02-22T10:58:08.850Z,66.30
2023-02-22T11:00:38.721Z,66.40
2023-02-22T11:03:18.599Z,66.60
2023-02-22T11:05:45.576Z,67.00
2023-02-22T11:08:21.170Z,67.20
2023-02-22T11:10:49.493Z,67.40
2023-02-22T11:13:30.083Z,67.60
2023-02-22T11:16:17.057Z,67.70
2023-02-22T11:18:44.257Z,67.70
2023-02-22T11:21:13.776Z,67.80
2023-02-22T11:23:44.727Z,68.00
2023-02-22T11:26:20.371Z,68.00
2023-02-22T11:28:55.969Z,68.00
2023-02-22T11:31:27.134Z,67.80
2023-02-22T11:33:59.744Z,67.90
2023-02-22T11:36:40.841Z,68.00
2023-02-22T11:39:26.996Z,67.70
2023-02-22T11:41:55.820Z,68.00
2023-02-22T11:44:26.763Z,67.90
2023-02-22T11:47:06.751Z,67.90
2023-02-22T11:49:39.506Z,68.00
2023-02-22T11:52:28.422Z,68.00
2023-02-22T11:55:36.227Z,68.10
2023-02-22T11:58:33.071Z,68.00
2023-02-22T12:01:26.672Z,68.00
2023-02-22T12:04:22.455Z,68.10
2023-02-22T12:07:15.346Z,67.90
2023-02-22T12:10:12.637Z,67.80
2023-02-22T12:12:56.842Z,68.00
2023-02-22T12:15:30.589Z,68.10
2023-02-22T12:18:13.966Z,68.00
2023-02-22T12:20:47.586Z,67.90
2023-02-22T12:23:29.978Z,68.10
2023-02-22T12:26:01.864Z,68.30
2023-02-22T12:28:51.513Z,68.30
2023-02-22T12:31:33.715Z,68.20
2023-02-22T12:34:12.381Z,68.10
2023-02-22T12:36:52.989Z,68.00
2023-02-22T12:39:51.813Z,67.90
2023-02-22T12:43:04.601Z,67.90
2023-02-22T12:45:38.451Z,68.10
2023-02-22T12:48:24.997Z,68.10
2023-02-22T12:50:59.076Z,67.90
2023-02-22T12:53:31.127Z,68.00
2023-02-22T12:56:12.146Z,67.90
2023-02-22T12:58:47.697Z,68.00
2023-02-22T13:01:21.592Z,68.10
2023-02-22T13:03:49.129Z,68.10
2023-02-22T13:06:24.714Z,67.80
2023-02-22T13:09:16.134Z,67.80
2023-02-22T13:11:57.868Z,67.60
2023-02-22T13:15:02.320Z,67.60
2023-02-22T13:17:43.702Z,67.50
2023-02-22T13:20:18.361Z,67.40
2023-02-22T13:23:29.899Z,67.30
2023-02-22T13:26:20.059Z,67.40
2023-02-22T13:28:57.832Z,67.40
2023-02-22T13:31:43.311Z,67.20
2023-02-22T13:34:30.082Z,67.40
2023-02-22T13:37:06.598Z,67.50
2023-02-22T13:39:41.448Z,67.60
2023-02-22T13:42:19.423Z,67.50
2023-02-22T13:45:04.024Z,67.30
2023-02-22T13:47:45.676Z,67.60
2023-02-22T13:50:34.191Z,67.60
2023-02-22T13:53:06.274Z,67.30
2023-02-22T13:55:34.509Z,67.40
2023-02-22T13:58:05.861Z,67.30
2023-02-22T14:00:55.804Z,67.30
2023-02-22T14:03:30.047Z,67.20
2023-02-22T14:06:00.822Z,67.10
2023-02-22T14:08:31.546Z,67.00
2023-02-22T14:10:59.422Z,67.20
2023-02-22T14:13:31.076Z,67.20
2023-02-22T14:16:00.858Z,67.20
2023-02-22T14:18:29.384Z,67.20
2023-02-22T14:21:09.698Z,67.10
2023-02-22T14:23:42.986Z,67.20
2023-02-22T14:26:31.346Z,67.10
2023-02-22T14:28:58.023Z,67.90
2023-02-22T14:31:35.990Z,67.20
2023-02-22T14:34:22.450Z,67.10
2023-02-22T14:37:10.040Z,66.90
2023-02-22T14:39:50.170Z,66.90
2023-02-22T14:42:19.665Z,66.90
2023-02-22T14:45:02.751Z,66.90
2023-02-22T14:48:03.856Z,66.80
2023-02-22T14:50:45.778Z,66.60
2023-02-22T14:53:22.655Z,66.70
2023-02-22T14:56:02.387Z,66.90
2023-02-22T14:58:41.684Z,66.80
2023-02-22T15:01:23.394Z,66.70
2023-02-22T15:04:01.959Z,66.60
2023-02-22T15:06:35.217Z,66.70
2023-02-22T15:09:37.460Z,66.60
2023-02-22T15:12:04.126Z,66.70
2023-02-22T15:14:38.814Z,66.60
2023-02-22T15:17:25.772Z,66.50
2023-02-22T15:19:53.331Z,66.70
2023-02-22T15:22:27.231Z,66.80
2023-02-22T15:24:58.767Z,66.60
2023-02-22T15:27:26.406Z,66.60
2023-02-22T15:30:00.188Z,66.70
2023-02-22T15:32:56.950Z,66.50
2023-02-22T15:35:30.790Z,66.60
2023-02-22T15:38:22.724Z,66.60
2023-02-22T15:41:02.934Z,66.70
2023-02-22T15:43:31.931Z,66.70
2023-02-22T15:45:59.994Z,66.60
2023-02-22T15:48:28.298Z,66.50
2023-02-22T15:51:13.747Z,66.50
2023-02-22T15:53:43.845Z,66.50
2023-02-22T15:56:17.743Z,59.60
2023-02-22T15:58:47.447Z,58.10
2023-02-22T16:01:19.405Z,58.00
2023-02-22T16:03:52.917Z,58.20
2023-02-22T16:06:35.101Z,58.00
2023-02-22T16:09:12.606Z,60.60
2023-02-22T16:11:44.058Z,64.20
2023-02-22T16:14:29.368Z,63.70
2023-02-22T16:17:35.261Z,62.80
2023-02-22T16:20:21.830Z,63.00
2023-02-22T16:22:49.674Z,70.40
2023-02-22T16:25:19.355Z,80.10
2023-02-22T16:28:01.508Z,63.30
2023-02-22T16:30:34.637Z,63.30
2023-02-22T16:33:05.508Z,63.60
2023-02-22T16:35:35.392Z,63.80
2023-02-22T16:38:07.994Z,63.90
2023-02-22T16:40:38.907Z,64.00
2023-02-22T16:43:20.352Z,64.20
2023-02-22T16:45:47.251Z,64.50
2023-02-22T16:48:19.878Z,58.70
2023-02-22T16:50:48.829Z,57.40
2023-02-22T16:53:20.002Z,58.10
2023-02-22T16:55:52.542Z,59.70
2023-02-22T16:58:19.811Z,60.90
2023-02-22T17:00:46.421Z,62.40
2023-02-22T17:03:18.265Z,62.40
2023-02-22T17:05:45.168Z,62.70
2023-02-22T17:08:12.025Z,62.90
2023-02-22T17:10:38.773Z,62.90
2023-02-22T17:13:21.835Z,63.10
2023-02-22T17:15:52.917Z,63.20
2023-02-22T17:18:22.785Z,63.30
2023-02-22T17:20:54.300Z,59.80
2023-02-22T17:23:22.389Z,58.00
2023-02-22T17:25:55.365Z,59.90
2023-02-22T17:28:24.348Z,60.70
2023-02-22T17:30:52.517Z,61.70
2023-02-22T17:33:22.903Z,62.20
2023-02-22T17:35:49.678Z,62.50
2023-02-22T17:38:19.420Z,62.80
2023-02-22T17:40:51.958Z,62.90
2023-02-22T17:43:21.809Z,63.00
2023-02-22T17:45:48.806Z,63.20
2023-02-22T17:48:17.586Z,63.30
2023-02-22T17:50:46.390Z,64.30
2023-02-22T17:53:13.546Z,63.40
2023-02-22T17:55:41.769Z,64.00
2023-02-22T17:58:15.632Z,63.90
2023-02-22T18:00:48.521Z,64.00
2023-02-22T18:03:21.549Z,64.00
2023-02-22T18:05:50.610Z,64.40
2023-02-22T18:08:17.414Z,64.20
2023-02-22T18:10:44.796Z,64.50
2023-02-22T18:13:17.893Z,64.80
2023-02-22T18:15:46.351Z,64.50
2023-02-22T18:18:13.401Z,64.30
2023-02-22T18:20:44.514Z,64.40
2023-02-22T18:23:19.406Z,64.50
2023-02-22T18:26:07.714Z,64.70
2023-02-22T18:28:37.031Z,64.70
2023-02-22T18:31:08.228Z,64.80
2023-02-22T18:33:35.045Z,64.70
2023-02-22T18:36:01.714Z,64.00
2023-02-22T18:38:28.280Z,64.30
2023-02-22T18:41:00.519Z,64.50
2023-02-22T18:43:28.074Z,64.60
2023-02-22T18:46:04.201Z,64.90
2023-02-22T18:48:30.830Z,64.90
2023-02-22T18:51:01.390Z,64.80
2023-02-22T18:53:29.362Z,65.10
2023-02-22T18:55:56.285Z,65.00
2023-02-22T18:58:22.875Z,65.20
2023-02-22T19:00:49.577Z,65.10
2023-02-22T19:03:16.164Z,66.10
2023-02-22T19:05:42.823Z,65.30
2023-02-22T19:08:11.300Z,65.20
2023-02-22T19:10:38.729Z,65.20
2023-02-22T19:13:10.541Z,65.30
2023-02-22T19:15:38.276Z,65.40
2023-02-22T19:18:05.009Z,65.40
2023-02-22T19:20:33.219Z,65.30
2023-02-22T19:23:00.946Z,65.20
2023-02-22T19:25:28.541Z,65.10
2023-02-22T19:27:59.078Z,65.30
2023-02-22T19:30:25.795Z,65.20
2023-02-22T19:32:52.590Z,65.30
2023-02-22T19:35:28.283Z,65.40
2023-02-22T19:37:55.693Z,65.30
2023-02-22T19:40:23.148Z,65.40
2023-02-22T19:42:54.621Z,65.40
2023-02-22T19:45:22.353Z,65.20
2023-02-22T19:47:54.455Z,65.10
2023-02-22T19:50:21.220Z,65.00
2023-02-22T19:52:48.288Z,64.90
2023-02-22T19:55:15.007Z,64.80
2023-02-22T19:57:50.106Z,65.00
2023-02-22T20:00:24.300Z,65.20
2023-02-22T20:03:05.501Z,65.10
2023-02-22T20:05:40.240Z,64.80
2023-02-22T20:08:07.078Z,64.60
2023-02-22T20:10:37.126Z,64.30
2023-02-22T20:13:03.747Z,64.00
2023-02-22T20:15:30.334Z,64.40
2023-02-22T20:17:58.928Z,62.80
2023-02-22T20:20:27.582Z,63.10
2023-02-22T20:22:55.634Z,63.30
2023-02-22T20:25:22.377Z,63.60
2023-02-22T20:27:49.847Z,63.50
2023-02-22T20:30:18.058Z,63.70
2023-02-22T20:32:45.260Z,63.90
2023-02-22T20:35:12.101Z,63.80
2023-02-22T20:37:40.288Z,64.00
2023-02-22T20:40:07.515Z,64.30
2023-02-22T20:42:34.167Z,64.30
2023-02-22T20:45:04.561Z,64.50
2023-02-22T20:47:31.273Z,64.80
2023-02-22T20:49:57.992Z,64.80
2023-02-22T20:52:24.675Z,65.10
2023-02-22T20:54:51.301Z,65.00
2023-02-22T20:57:17.961Z,65.10
2023-02-22T20:59:45.885Z,65.40
2023-02-22T21:02:12.490Z,65.60
2023-02-22T21:04:39.922Z,65.60
2023-02-22T21:07:06.612Z,65.80
2023-02-22T21:09:33.863Z,66.00
2023-02-22T21:12:00.691Z,66.00
2023-02-22T21:14:28.341Z,66.30
2023-02-22T21:16:55.069Z,66.30
2023-02-22T21:19:27.503Z,66.40
2023-02-22T21:21:56.801Z,66.80
2023-02-22T21:24:25.064Z,66.70
2023-02-22T21:26:52.087Z,66.50
2023-02-22T21:29:19.538Z,66.20
2023-02-22T21:31:46.343Z,66.40
2023-02-22T21:34:17.440Z,66.40
2023-02-22T21:36:47.087Z,66.70
2023-02-22T21:39:18.070Z,67.00
2023-02-22T21:41:51.824Z,67.50
2023-02-22T21:44:19.163Z,67.80
2023-02-22T21:46:48.739Z,67.80
2023-02-22T21:49:15.585Z,67.80
2023-02-22T21:51:42.480Z,67.80
2023-02-22T21:54:11.909Z,67.80
2023-02-22T21:56:41.334Z,67.80
2023-02-22T21:59:11.961Z,67.80
2023-02-22T22:01:46.848Z,67.80
2023-02-22T22:04:18.787Z,67.80
2023-02-22T22:06:47.770Z,67.80
2023-02-22T22:09:18.216Z,67.70
2023-02-22T22:11:53.802Z,67.70
2023-02-22T22:14:23.090Z,67.60
2023-02-22T22:16:52.390Z,67.70
2023-02-22T22:19:19.066Z,67.60
2023-02-22T22:21:46.902Z,67.60
2023-02-22T22:24:13.663Z,67.60
2023-02-22T22:26:40.477Z,67.70
2023-02-22T22:29:10.336Z,67.70
2023-02-22T22:31:37.896Z,67.70
2023-02-22T22:34:05.245Z,67.70
2023-02-22T22:36:34.087Z,67.70
2023-02-22T22:39:00.914Z,67.70
2023-02-22T22:41:30.462Z,67.70
2023-02-22T22:43:57.125Z,67.70
2023-02-22T22:46:23.940Z,67.70
2023-02-22T22:48:50.596Z,67.80
2023-02-22T22:51:21.452Z,68.10
2023-02-22T22:53:49.548Z,67.80
2023-02-22T22:56:26.027Z,67.80
2023-02-22T22:58:54.955Z,67.70
2023-02-22T23:01:26.931Z,67.70
2023-02-22T23:03:55.506Z,67.70
2023-02-22T23:06:27.677Z,67.80
2023-02-22T23:09:01.504Z,67.80
2023-02-22T23:11:33.466Z,67.80
2023-02-22T23:14:03.789Z,67.80
2023-02-22T23:16:32.222Z,67.80
2023-02-22T23:18:59.254Z,67.70
2023-02-22T23:21:25.930Z,67.70
2023-02-22T23:23:58.275Z,67.70
2023-02-22T23:26:27.090Z,67.80
2023-02-22T23:28:59.060Z,67.70
2023-02-22T23:31:29.224Z,67.80
2023-02-22T23:33:58.605Z,67.80
2023-02-22T23:36:26.400Z,67.70
2023-02-22T23:38:54.075Z,67.70
2023-02-22T23:41:21.024Z,67.70
2023-02-22T23:43:47.759Z,67.70
2023-02-22T23:46:18.545Z,67.80
2023-02-22T23:48:54.512Z,67.80
2023-02-22T23:51:26.922Z,67.80
2023-02-22T23:53:57.433Z,67.80
2023-02-22T23:56:26.524Z,67.80
2023-02-22T23:58:57.169Z,67.80
